sensor_id;sensor_type;location;lat;lon;timestamp;P1;durP1;ratioP1;P2;durP2;ratioP2
28796;SDS011;24974;54.444;18.560;2023-03-03T00:00:27;31.23;;;17.70;;
28796;SDS011;24974;54.444;18.560;2023-03-03T00:02:58;32.30;;;20.23;;
28796;SDS011;24974;54.444;18.560;2023-03-03T00:05:34;32.17;;;19.42;;
28796;SDS011;24974;54.444;18.560;2023-03-03T00:08:05;28.73;;;18.30;;
28796;SDS011;24974;54.444;18.560;2023-03-03T00:10:37;30.98;;;17.67;;
28796;SDS011;24974;54.444;18.560;2023-03-03T00:13:21;32.72;;;18.08;;
28796;SDS011;24974;54.444;18.560;2023-03-03T00:15:54;28.65;;;17.95;;
28796;SDS011;24974;54.444;18.560;2023-03-03T00:18:47;28.52;;;17.55;;
28796;SDS011;24974;54.444;18.560;2023-03-03T00:21:26;30.98;;;18.77;;
28796;SDS011;24974;54.444;18.560;2023-03-03T00:29:40;31.75;;;20.20;;
28796;SDS011;24974;54.444;18.560;2023-03-03T00:34:46;29.42;;;17.10;;
28796;SDS011;24974;54.444;18.560;2023-03-03T00:37:22;29.33;;;17.95;;
28796;SDS011;24974;54.444;18.560;2023-03-03T00:40:39;29.20;;;17.63;;
28796;SDS011;24974;54.444;18.560;2023-03-03T00:42:54;29.67;;;18.33;;
28796;SDS011;24974;54.444;18.560;2023-03-03T00:45:38;32.58;;;18.73;;
28796;SDS011;24974;54.444;18.560;2023-03-03T00:48:21;30.67;;;19.13;;
28796;SDS011;24974;54.444;18.560;2023-03-03T00:50:59;29.10;;;16.80;;
28796;SDS011;24974;54.444;18.560;2023-03-03T00:53:31;27.55;;;14.55;;
28796;SDS011;24974;54.444;18.560;2023-03-03T00:56:02;24.60;;;15.55;;
28796;SDS011;24974;54.444;18.560;2023-03-03T00:58:33;27.90;;;16.67;;
28796;SDS011;24974;54.444;18.560;2023-03-03T01:01:04;29.58;;;17.10;;
28796;SDS011;24974;54.444;18.560;2023-03-03T01:03:46;28.00;;;16.02;;
28796;SDS011;24974;54.444;18.560;2023-03-03T01:06:16;17.52;;;11.63;;
28796;SDS011;24974;54.444;18.560;2023-03-03T01:08:47;26.15;;;17.20;;
28796;SDS011;24974;54.444;18.560;2023-03-03T01:11:19;24.10;;;16.75;;
28796;SDS011;24974;54.444;18.560;2023-03-03T01:13:53;22.83;;;15.38;;
28796;SDS011;24974;54.444;18.560;2023-03-03T01:16:24;24.60;;;15.43;;
28796;SDS011;24974;54.444;18.560;2023-03-03T01:18:55;23.88;;;14.88;;
28796;SDS011;24974;54.444;18.560;2023-03-03T01:21:26;21.95;;;15.18;;
28796;SDS011;24974;54.444;18.560;2023-03-03T01:23:57;21.88;;;15.05;;
28796;SDS011;24974;54.444;18.560;2023-03-03T01:26:28;21.17;;;13.70;;
28796;SDS011;24974;54.444;18.560;2023-03-03T01:29:00;22.00;;;14.68;;
28796;SDS011;24974;54.444;18.560;2023-03-03T01:31:31;18.98;;;14.07;;
28796;SDS011;24974;54.444;18.560;2023-03-03T01:34:02;18.88;;;13.55;;
28796;SDS011;24974;54.444;18.560;2023-03-03T01:36:33;17.20;;;13.23;;
28796;SDS011;24974;54.444;18.560;2023-03-03T01:39:04;21.55;;;15.18;;
28796;SDS011;24974;54.444;18.560;2023-03-03T01:41:35;22.33;;;15.02;;
28796;SDS011;24974;54.444;18.560;2023-03-03T01:44:06;25.40;;;18.58;;
28796;SDS011;24974;54.444;18.560;2023-03-03T06:02:41;20.40;;;14.45;;
28796;SDS011;24974;54.444;18.560;2023-03-03T06:05:13;27.05;;;16.60;;
28796;SDS011;24974;54.444;18.560;2023-03-03T06:07:44;22.95;;;15.40;;
28796;SDS011;24974;54.444;18.560;2023-03-03T06:10:15;23.60;;;16.20;;
28796;SDS011;24974;54.444;18.560;2023-03-03T06:12:50;26.35;;;16.13;;
28796;SDS011;24974;54.444;18.560;2023-03-03T06:15:22;26.00;;;15.80;;
28796;SDS011;24974;54.444;18.560;2023-03-03T06:17:53;23.05;;;15.32;;
28796;SDS011;24974;54.444;18.560;2023-03-03T06:20:23;22.38;;;15.88;;
28796;SDS011;24974;54.444;18.560;2023-03-03T06:22:54;23.98;;;15.68;;
28796;SDS011;24974;54.444;18.560;2023-03-03T06:25:25;25.48;;;18.35;;
28796;SDS011;24974;54.444;18.560;2023-03-03T06:27:57;22.60;;;15.40;;
28796;SDS011;24974;54.444;18.560;2023-03-03T06:30:28;24.65;;;14.45;;
28796;SDS011;24974;54.444;18.560;2023-03-03T06:33:00;21.98;;;13.30;;
28796;SDS011;24974;54.444;18.560;2023-03-03T06:35:30;20.40;;;12.90;;
28796;SDS011;24974;54.444;18.560;2023-03-03T06:38:01;20.88;;;13.85;;
28796;SDS011;24974;54.444;18.560;2023-03-03T06:40:32;21.55;;;13.60;;
28796;SDS011;24974;54.444;18.560;2023-03-03T06:43:03;21.17;;;16.27;;
28796;SDS011;24974;54.444;18.560;2023-03-03T06:45:34;30.90;;;18.00;;
28796;SDS011;24974;54.444;18.560;2023-03-03T06:48:05;19.67;;;13.30;;
28796;SDS011;24974;54.444;18.560;2023-03-03T06:50:36;22.10;;;14.07;;
28796;SDS011;24974;54.444;18.560;2023-03-03T06:53:13;19.02;;;13.10;;
28796;SDS011;24974;54.444;18.560;2023-03-03T06:55:45;17.20;;;11.80;;
28796;SDS011;24974;54.444;18.560;2023-03-03T06:58:16;20.27;;;12.75;;
28796;SDS011;24974;54.444;18.560;2023-03-03T07:00:52;19.25;;;12.90;;
28796;SDS011;24974;54.444;18.560;2023-03-03T07:06:07;18.17;;;11.70;;
28796;SDS011;24974;54.444;18.560;2023-03-03T07:08:46;18.88;;;14.07;;
28796;SDS011;24974;54.444;18.560;2023-03-03T07:11:17;18.00;;;13.18;;
28796;SDS011;24974;54.444;18.560;2023-03-03T07:13:53;15.85;;;12.02;;
28796;SDS011;24974;54.444;18.560;2023-03-03T07:16:25;17.25;;;12.30;;
28796;SDS011;24974;54.444;18.560;2023-03-03T07:19:00;16.80;;;12.43;;
28796;SDS011;24974;54.444;18.560;2023-03-03T07:21:33;18.88;;;11.38;;
28796;SDS011;24974;54.444;18.560;2023-03-03T07:24:21;20.38;;;12.00;;
28796;SDS011;24974;54.444;18.560;2023-03-03T07:26:59;16.38;;;11.27;;
28796;SDS011;24974;54.444;18.560;2023-03-03T07:29:41;15.98;;;11.25;;
28796;SDS011;24974;54.444;18.560;2023-03-03T07:32:36;20.88;;;12.27;;
28796;SDS011;24974;54.444;18.560;2023-03-03T07:38:33;17.90;;;11.60;;
28796;SDS011;24974;54.444;18.560;2023-03-03T07:41:05;17.20;;;11.93;;
28796;SDS011;24974;54.444;18.560;2023-03-03T07:46:43;26.23;;;22.25;;
28796;SDS011;24974;54.444;18.560;2023-03-03T07:49:29;16.63;;;12.10;;
28796;SDS011;24974;54.444;18.560;2023-03-03T07:54:58;19.73;;;12.30;;
28796;SDS011;24974;54.444;18.560;2023-03-03T07:57:35;22.13;;;13.45;;
28796;SDS011;24974;54.444;18.560;2023-03-03T08:02:54;17.27;;;12.55;;
28796;SDS011;24974;54.444;18.560;2023-03-03T08:08:44;18.42;;;13.68;;
28796;SDS011;24974;54.444;18.560;2023-03-03T08:11:02;18.05;;;12.15;;
28796;SDS011;24974;54.444;18.560;2023-03-03T08:13:39;19.15;;;13.90;;
28796;SDS011;24974;54.444;18.560;2023-03-03T08:18:47;18.88;;;12.90;;
28796;SDS011;24974;54.444;18.560;2023-03-03T08:21:20;15.52;;;11.38;;
28796;SDS011;24974;54.444;18.560;2023-03-03T08:23:52;19.08;;;11.93;;
28796;SDS011;24974;54.444;18.560;2023-03-03T08:26:23;18.75;;;11.27;;
28796;SDS011;24974;54.444;18.560;2023-03-03T08:28:55;16.20;;;11.60;;
28796;SDS011;24974;54.444;18.560;2023-03-03T08:31:26;15.00;;;11.18;;
28796;SDS011;24974;54.444;18.560;2023-03-03T08:33:57;20.23;;;12.45;;
28796;SDS011;24974;54.444;18.560;2023-03-03T08:36:28;17.60;;;12.02;;
28796;SDS011;24974;54.444;18.560;2023-03-03T08:38:59;15.18;;;10.88;;
28796;SDS011;24974;54.444;18.560;2023-03-03T08:41:30;15.48;;;12.15;;
28796;SDS011;24974;54.444;18.560;2023-03-03T08:44:01;17.98;;;12.15;;
28796;SDS011;24974;54.444;18.560;2023-03-03T08:46:31;18.42;;;12.00;;
28796;SDS011;24974;54.444;18.560;2023-03-03T08:49:02;15.38;;;12.15;;
28796;SDS011;24974;54.444;18.560;2023-03-03T08:51:33;21.40;;;12.15;;
28796;SDS011;24974;54.444;18.560;2023-03-03T08:54:04;17.48;;;12.93;;
28796;SDS011;24974;54.444;18.560;2023-03-03T08:56:35;16.73;;;10.68;;
28796;SDS011;24974;54.444;18.560;2023-03-03T08:59:06;16.33;;;11.73;;
28796;SDS011;24974;54.444;18.560;2023-03-03T09:01:37;16.58;;;11.63;;
28796;SDS011;24974;54.444;18.560;2023-03-03T09:04:08;16.70;;;12.15;;
28796;SDS011;24974;54.444;18.560;2023-03-03T09:06:39;18.77;;;12.23;;
28796;SDS011;24974;54.444;18.560;2023-03-03T09:09:10;19.77;;;12.48;;
28796;SDS011;24974;54.444;18.560;2023-03-03T09:11:41;17.88;;;12.00;;
28796;SDS011;24974;54.444;18.560;2023-03-03T09:14:14;18.63;;;12.30;;
28796;SDS011;24974;54.444;18.560;2023-03-03T09:16:51;19.85;;;13.02;;
28796;SDS011;24974;54.444;18.560;2023-03-03T09:19:28;16.58;;;11.95;;
28796;SDS011;24974;54.444;18.560;2023-03-03T09:22:08;18.88;;;12.32;;
28796;SDS011;24974;54.444;18.560;2023-03-03T09:24:49;19.25;;;13.68;;
28796;SDS011;24974;54.444;18.560;2023-03-03T09:27:28;17.92;;;13.07;;
28796;SDS011;24974;54.444;18.560;2023-03-03T09:30:02;16.58;;;11.70;;
28796;SDS011;24974;54.444;18.560;2023-03-03T09:33:01;15.90;;;11.20;;
28796;SDS011;24974;54.444;18.560;2023-03-03T09:35:49;19.25;;;11.90;;
28796;SDS011;24974;54.444;18.560;2023-03-03T09:38:34;18.50;;;12.10;;
28796;SDS011;24974;54.444;18.560;2023-03-03T10:15:53;15.50;;;9.55;;
28796;SDS011;24974;54.444;18.560;2023-03-03T10:18:29;17.58;;;10.18;;
28796;SDS011;24974;54.444;18.560;2023-03-03T10:21:14;14.80;;;10.18;;
28796;SDS011;24974;54.444;18.560;2023-03-03T10:23:56;11.88;;;8.85;;
28796;SDS011;24974;54.444;18.560;2023-03-03T10:29:25;12.55;;;7.70;;
28796;SDS011;24974;54.444;18.560;2023-03-03T10:37:44;11.40;;;8.25;;
28796;SDS011;24974;54.444;18.560;2023-03-03T11:01:03;10.57;;;6.95;;
28796;SDS011;24974;54.444;18.560;2023-03-03T11:06:54;9.30;;;6.47;;
28796;SDS011;24974;54.444;18.560;2023-03-03T11:15:12;8.85;;;6.35;;
28796;SDS011;24974;54.444;18.560;2023-03-03T11:20:38;8.68;;;5.22;;
28796;SDS011;24974;54.444;18.560;2023-03-03T11:43:30;7.82;;;5.00;;
28796;SDS011;24974;54.444;18.560;2023-03-03T11:46:10;6.05;;;3.97;;
28796;SDS011;24974;54.444;18.560;2023-03-03T11:48:51;11.63;;;5.10;;
28796;SDS011;24974;54.444;18.560;2023-03-03T12:00:50;11.88;;;5.05;;
28796;SDS011;24974;54.444;18.560;2023-03-03T12:03:29;6.22;;;4.45;;
28796;SDS011;24974;54.444;18.560;2023-03-03T12:11:27;5.75;;;3.53;;
28796;SDS011;24974;54.444;18.560;2023-03-03T12:16:57;6.70;;;3.38;;
28796;SDS011;24974;54.444;18.560;2023-03-03T12:25:44;4.38;;;2.20;;
28796;SDS011;24974;54.444;18.560;2023-03-03T12:28:24;5.18;;;2.20;;
28796;SDS011;24974;54.444;18.560;2023-03-03T12:37:05;4.03;;;2.08;;
28796;SDS011;24974;54.444;18.560;2023-03-03T12:54:17;2.80;;;1.80;;
28796;SDS011;24974;54.444;18.560;2023-03-03T12:57:04;3.15;;;1.95;;
28796;SDS011;24974;54.444;18.560;2023-03-03T13:06:03;4.10;;;2.22;;
28796;SDS011;24974;54.444;18.560;2023-03-03T13:08:37;3.85;;;1.65;;
28796;SDS011;24974;54.444;18.560;2023-03-03T13:11:34;3.97;;;2.08;;
28796;SDS011;24974;54.444;18.560;2023-03-03T13:14:18;3.42;;;1.80;;
28796;SDS011;24974;54.444;18.560;2023-03-03T13:19:57;2.75;;;1.73;;
28796;SDS011;24974;54.444;18.560;2023-03-03T13:31:02;4.05;;;1.88;;
28796;SDS011;24974;54.444;18.560;2023-03-03T13:33:42;3.47;;;1.58;;
28796;SDS011;24974;54.444;18.560;2023-03-03T13:36:27;4.38;;;1.95;;
28796;SDS011;24974;54.444;18.560;2023-03-03T13:44:37;4.78;;;1.98;;
28796;SDS011;24974;54.444;18.560;2023-03-03T13:50:11;4.80;;;1.98;;
28796;SDS011;24974;54.444;18.560;2023-03-03T13:55:52;8.05;;;2.40;;
28796;SDS011;24974;54.444;18.560;2023-03-03T13:58:41;5.18;;;2.15;;
28796;SDS011;24974;54.444;18.560;2023-03-03T14:04:31;5.25;;;2.40;;
28796;SDS011;24974;54.444;18.560;2023-03-03T14:13:05;5.97;;;2.10;;
28796;SDS011;24974;54.444;18.560;2023-03-03T14:15:54;4.50;;;2.13;;
28796;SDS011;24974;54.444;18.560;2023-03-03T14:18:32;4.57;;;2.17;;
28796;SDS011;24974;54.444;18.560;2023-03-03T14:21:16;5.50;;;2.17;;
28796;SDS011;24974;54.444;18.560;2023-03-03T14:24:14;6.20;;;2.42;;
28796;SDS011;24974;54.444;18.560;2023-03-03T14:26:48;6.70;;;2.55;;
28796;SDS011;24974;54.444;18.560;2023-03-03T14:32:01;4.65;;;2.85;;
28796;SDS011;24974;54.444;18.560;2023-03-03T14:34:57;4.72;;;2.45;;
28796;SDS011;24974;54.444;18.560;2023-03-03T14:37:41;5.32;;;2.25;;
28796;SDS011;24974;54.444;18.560;2023-03-03T14:40:15;8.48;;;3.17;;
28796;SDS011;24974;54.444;18.560;2023-03-03T14:45:28;5.20;;;2.65;;
28796;SDS011;24974;54.444;18.560;2023-03-03T14:48:05;5.97;;;3.75;;
28796;SDS011;24974;54.444;18.560;2023-03-03T14:50:57;12.30;;;3.60;;
28796;SDS011;24974;54.444;18.560;2023-03-03T14:53:48;5.07;;;3.00;;
28796;SDS011;24974;54.444;18.560;2023-03-03T14:56:27;6.35;;;3.08;;
28796;SDS011;24974;54.444;18.560;2023-03-03T14:59:16;10.18;;;4.07;;
28796;SDS011;24974;54.444;18.560;2023-03-03T15:01:57;8.20;;;3.92;;
28796;SDS011;24974;54.444;18.560;2023-03-03T15:04:48;11.18;;;3.70;;
28796;SDS011;24974;54.444;18.560;2023-03-03T15:09:55;5.57;;;3.20;;
28796;SDS011;24974;54.444;18.560;2023-03-03T15:17:39;7.70;;;3.28;;
28796;SDS011;24974;54.444;18.560;2023-03-03T15:23:17;7.35;;;3.95;;
28796;SDS011;24974;54.444;18.560;2023-03-03T15:26:05;11.05;;;4.07;;
28796;SDS011;24974;54.444;18.560;2023-03-03T15:52:15;11.82;;;6.05;;
28796;SDS011;24974;54.444;18.560;2023-03-03T16:01:08;11.80;;;5.65;;
28796;SDS011;24974;54.444;18.560;2023-03-03T16:04:07;11.38;;;7.07;;
28796;SDS011;24974;54.444;18.560;2023-03-03T16:09:37;10.70;;;6.90;;
28796;SDS011;24974;54.444;18.560;2023-03-03T16:15:18;15.85;;;6.63;;
28796;SDS011;24974;54.444;18.560;2023-03-03T16:27:18;12.52;;;7.15;;
28796;SDS011;24974;54.444;18.560;2023-03-03T16:35:21;10.27;;;6.72;;
28796;SDS011;24974;54.444;18.560;2023-03-03T16:38:14;13.25;;;6.60;;
28796;SDS011;24974;54.444;18.560;2023-03-03T16:40:53;12.32;;;6.70;;
28796;SDS011;24974;54.444;18.560;2023-03-03T16:46:34;15.55;;;7.15;;
28796;SDS011;24974;54.444;18.560;2023-03-03T16:52:06;17.75;;;6.60;;
28796;SDS011;24974;54.444;18.560;2023-03-03T17:03:46;16.35;;;8.23;;
28796;SDS011;24974;54.444;18.560;2023-03-03T17:06:20;15.90;;;7.53;;
28796;SDS011;24974;54.444;18.560;2023-03-03T17:09:34;18.60;;;11.52;;
28796;SDS011;24974;54.444;18.560;2023-03-03T17:21:09;18.23;;;9.20;;
28796;SDS011;24974;54.444;18.560;2023-03-03T17:38:59;17.48;;;10.32;;
28796;SDS011;24974;54.444;18.560;2023-03-03T17:44:40;17.02;;;10.13;;
28796;SDS011;24974;54.444;18.560;2023-03-03T17:53:46;26.58;;;10.43;;
28796;SDS011;24974;54.444;18.560;2023-03-03T17:56:47;15.90;;;11.35;;
28796;SDS011;24974;54.444;18.560;2023-03-03T17:59:44;18.17;;;12.75;;
28796;SDS011;24974;54.444;18.560;2023-03-03T18:07:59;23.70;;;11.20;;
28796;SDS011;24974;54.444;18.560;2023-03-03T18:13:50;17.92;;;11.07;;
28796;SDS011;24974;54.444;18.560;2023-03-03T18:22:32;24.80;;;12.10;;
28796;SDS011;24974;54.444;18.560;2023-03-03T18:25:08;23.23;;;12.80;;
28796;SDS011;24974;54.444;18.560;2023-03-03T18:27:42;22.73;;;20.20;;
28796;SDS011;24974;54.444;18.560;2023-03-03T18:30:31;23.40;;;13.02;;
28796;SDS011;24974;54.444;18.560;2023-03-03T18:36:37;24.02;;;13.65;;
28796;SDS011;24974;54.444;18.560;2023-03-03T18:44:46;19.75;;;11.82;;
28796;SDS011;24974;54.444;18.560;2023-03-03T18:47:17;17.45;;;11.07;;
28796;SDS011;24974;54.444;18.560;2023-03-03T18:49:49;18.05;;;10.43;;
28796;SDS011;24974;54.444;18.560;2023-03-03T18:52:23;14.15;;;10.55;;
28796;SDS011;24974;54.444;18.560;2023-03-03T18:57:39;15.80;;;10.25;;
28796;SDS011;24974;54.444;18.560;2023-03-03T19:00:30;12.70;;;8.75;;
28796;SDS011;24974;54.444;18.560;2023-03-03T19:03:02;13.43;;;10.02;;
28796;SDS011;24974;54.444;18.560;2023-03-03T19:05:48;19.42;;;11.68;;
28796;SDS011;24974;54.444;18.560;2023-03-03T19:08:24;16.48;;;10.50;;
28796;SDS011;24974;54.444;18.560;2023-03-03T19:14:14;17.38;;;10.82;;
28796;SDS011;24974;54.444;18.560;2023-03-03T19:17:45;16.48;;;10.55;;
28796;SDS011;24974;54.444;18.560;2023-03-03T19:22:47;17.00;;;10.35;;
28796;SDS011;24974;54.444;18.560;2023-03-03T19:25:21;16.40;;;13.20;;
28796;SDS011;24974;54.444;18.560;2023-03-03T19:30:56;19.08;;;11.25;;
28796;SDS011;24974;54.444;18.560;2023-03-03T19:39:31;15.52;;;11.05;;
28796;SDS011;24974;54.444;18.560;2023-03-03T19:42:13;19.27;;;11.88;;
28796;SDS011;24974;54.444;18.560;2023-03-03T19:48:16;17.98;;;11.35;;
28796;SDS011;24974;54.444;18.560;2023-03-03T19:51:00;15.32;;;12.48;;
28796;SDS011;24974;54.444;18.560;2023-03-03T19:56:19;18.10;;;10.70;;
28796;SDS011;24974;54.444;18.560;2023-03-03T19:59:03;12.00;;;8.85;;
28796;SDS011;24974;54.444;18.560;2023-03-03T20:16:08;15.32;;;8.88;;
28796;SDS011;24974;54.444;18.560;2023-03-03T20:18:50;15.07;;;9.10;;
28796;SDS011;24974;54.444;18.560;2023-03-03T20:21:46;13.73;;;9.73;;
28796;SDS011;24974;54.444;18.560;2023-03-03T20:24:59;13.77;;;9.90;;
28796;SDS011;24974;54.444;18.560;2023-03-03T20:33:44;14.57;;;10.60;;
28796;SDS011;24974;54.444;18.560;2023-03-03T20:50:52;13.43;;;9.07;;
28796;SDS011;24974;54.444;18.560;2023-03-03T20:56:45;10.60;;;8.70;;
28796;SDS011;24974;54.444;18.560;2023-03-03T20:59:26;12.82;;;7.95;;
28796;SDS011;24974;54.444;18.560;2023-03-03T21:07:54;14.48;;;8.07;;
28796;SDS011;24974;54.444;18.560;2023-03-03T21:10:36;12.95;;;7.60;;
28796;SDS011;24974;54.444;18.560;2023-03-03T21:16:00;10.82;;;7.05;;
28796;SDS011;24974;54.444;18.560;2023-03-03T21:18:35;12.48;;;11.32;;
28796;SDS011;24974;54.444;18.560;2023-03-03T21:21:07;11.30;;;7.38;;
28796;SDS011;24974;54.444;18.560;2023-03-03T21:23:38;13.05;;;8.57;;
28796;SDS011;24974;54.444;18.560;2023-03-03T21:26:08;11.15;;;8.65;;
28796;SDS011;24974;54.444;18.560;2023-03-03T21:28:40;12.40;;;8.85;;
28796;SDS011;24974;54.444;18.560;2023-03-03T21:31:42;14.20;;;8.45;;
28796;SDS011;24974;54.444;18.560;2023-03-03T21:34:36;11.25;;;9.57;;
28796;SDS011;24974;54.444;18.560;2023-03-03T21:37:13;13.52;;;12.10;;
28796;SDS011;24974;54.444;18.560;2023-03-03T21:40:10;16.00;;;11.13;;
28796;SDS011;24974;54.444;18.560;2023-03-03T21:42:43;14.52;;;10.15;;
28796;SDS011;24974;54.444;18.560;2023-03-03T21:45:14;21.15;;;8.93;;
28796;SDS011;24974;54.444;18.560;2023-03-03T21:47:46;21.33;;;13.05;;
28796;SDS011;24974;54.444;18.560;2023-03-03T21:50:17;13.32;;;9.38;;
28796;SDS011;24974;54.444;18.560;2023-03-03T21:52:51;14.98;;;9.98;;
28796;SDS011;24974;54.444;18.560;2023-03-03T21:55:22;15.25;;;10.98;;
28796;SDS011;24974;54.444;18.560;2023-03-03T21:57:53;13.27;;;9.85;;
28796;SDS011;24974;54.444;18.560;2023-03-03T22:00:24;17.05;;;9.93;;
28796;SDS011;24974;54.444;18.560;2023-03-03T22:02:55;15.52;;;10.18;;
28796;SDS011;24974;54.444;18.560;2023-03-03T22:05:26;17.63;;;10.00;;
28796;SDS011;24974;54.444;18.560;2023-03-03T22:07:57;12.38;;;10.10;;
28796;SDS011;24974;54.444;18.560;2023-03-03T22:10:28;16.42;;;11.52;;
28796;SDS011;24974;54.444;18.560;2023-03-03T22:12:59;18.13;;;9.82;;
28796;SDS011;24974;54.444;18.560;2023-03-03T22:15:30;14.43;;;11.13;;
28796;SDS011;24974;54.444;18.560;2023-03-03T22:18:03;21.77;;;10.73;;
28796;SDS011;24974;54.444;18.560;2023-03-03T22:20:34;15.55;;;10.60;;
28796;SDS011;24974;54.444;18.560;2023-03-03T22:23:04;20.65;;;10.65;;
28796;SDS011;24974;54.444;18.560;2023-03-03T22:25:35;18.25;;;11.35;;
28796;SDS011;24974;54.444;18.560;2023-03-03T22:28:06;18.00;;;10.63;;
28796;SDS011;24974;54.444;18.560;2023-03-03T22:30:37;21.40;;;12.32;;
28796;SDS011;24974;54.444;18.560;2023-03-03T22:33:08;17.13;;;12.30;;
28796;SDS011;24974;54.444;18.560;2023-03-03T22:35:39;21.38;;;12.20;;
28796;SDS011;24974;54.444;18.560;2023-03-03T22:38:10;18.50;;;11.77;;
28796;SDS011;24974;54.444;18.560;2023-03-03T22:40:41;21.27;;;12.85;;
28796;SDS011;24974;54.444;18.560;2023-03-03T22:43:12;18.50;;;11.93;;
28796;SDS011;24974;54.444;18.560;2023-03-03T22:45:43;23.90;;;12.95;;
28796;SDS011;24974;54.444;18.560;2023-03-03T22:48:14;22.45;;;12.35;;
28796;SDS011;24974;54.444;18.560;2023-03-03T22:50:45;18.00;;;12.25;;
28796;SDS011;24974;54.444;18.560;2023-03-03T22:53:16;19.25;;;12.25;;
28796;SDS011;24974;54.444;18.560;2023-03-03T22:55:48;20.13;;;12.35;;
28796;SDS011;24974;54.444;18.560;2023-03-03T22:58:19;22.23;;;12.32;;
28796;SDS011;24974;54.444;18.560;2023-03-03T23:00:54;22.63;;;15.43;;
28796;SDS011;24974;54.444;18.560;2023-03-03T23:03:25;18.25;;;13.88;;
28796;SDS011;24974;54.444;18.560;2023-03-03T23:05:57;24.23;;;12.82;;
28796;SDS011;24974;54.444;18.560;2023-03-03T23:08:28;26.08;;;13.43;;
28796;SDS011;24974;54.444;18.560;2023-03-03T23:10:59;39.63;;;22.42;;
28796;SDS011;24974;54.444;18.560;2023-03-03T23:13:29;15.30;;;11.82;;
28796;SDS011;24974;54.444;18.560;2023-03-03T23:16:01;30.05;;;15.75;;
28796;SDS011;24974;54.444;18.560;2023-03-03T23:18:32;21.02;;;13.18;;
28796;SDS011;24974;54.444;18.560;2023-03-03T23:21:03;24.90;;;14.82;;
28796;SDS011;24974;54.444;18.560;2023-03-03T23:23:34;23.88;;;13.73;;
28796;SDS011;24974;54.444;18.560;2023-03-03T23:26:05;26.77;;;14.45;;
28796;SDS011;24974;54.444;18.560;2023-03-03T23:28:36;28.48;;;15.50;;
28796;SDS011;24974;54.444;18.560;2023-03-03T23:31:06;27.15;;;15.40;;
28796;SDS011;24974;54.444;18.560;2023-03-03T23:33:37;31.40;;;15.15;;
28796;SDS011;24974;54.444;18.560;2023-03-03T23:36:08;22.23;;;14.05;;
28796;SDS011;24974;54.444;18.560;2023-03-03T23:38:39;23.80;;;16.60;;
28796;SDS011;24974;54.444;18.560;2023-03-03T23:41:10;30.00;;;15.38;;
28796;SDS011;24974;54.444;18.560;2023-03-03T23:43:41;31.60;;;16.20;;
28796;SDS011;24974;54.444;18.560;2023-03-03T23:46:12;28.60;;;14.02;;
28796;SDS011;24974;54.444;18.560;2023-03-03T23:48:44;26.05;;;14.27;;
28796;SDS011;24974;54.444;18.560;2023-03-03T23:51:15;32.13;;;14.57;;
28796;SDS011;24974;54.444;18.560;2023-03-03T23:53:46;36.40;;;14.80;;
28796;SDS011;24974;54.444;18.560;2023-03-03T23:56:17;32.15;;;15.18;;
28796;SDS011;24974;54.444;18.560;2023-03-03T23:58:48;27.58;;;13.80;;
